Time,TemperatureF,DewpointF,PressureIn,WindDirection,WindDirectionDegrees,WindSpeedMPH,WindSpeedGustMPH,Humidity,HourlyPrecipIn,Conditions,Clouds,dailyrainin,SoftwareType,DateUTC
2013-06-03 00:04:00,53.2,48.5,30.46,WSW,238,9.2,9.2,84,0.00,CLR,,0.00,WeatherDisplay:10.37,2013-06-02 23:04:00,
2013-06-03 00:09:00,53.2,48.5,30.46,WSW,245,6.9,6.9,84,0.00,CLR,,0.00,WeatherDisplay:10.37,2013-06-02 23:09:00,
2013-06-03 00:14:00,53.1,48.4,30.46,WSW,242,4.6,4.6,84,0.00,CLR,,0.00,WeatherDisplay:10.37,2013-06-02 23:14:00,
2013-06-03 00:19:00,53.1,48.4,30.46,West,259,3.5,3.5,84,0.00,CLR,,0.00,WeatherDisplay:10.37,2013-06-02 23:19:00,
2013-06-03 00:24:00,53.1,48.1,30.46,West,260,0.0,0.0,83,0.00,CLR,,0.00,WeatherDisplay:10.37,2013-06-02 23:24:00,
2013-06-03 00:29:00,53.2,48.2,30.46,West,260,0.0,0.0,83,0.00,CLR,,0.00,WeatherDisplay:10.37,2013-06-02 23:29:00,
2013-06-03 00:34:00,53.3,48.3,30.46,West,259,1.2,1.2,83,0.00,CLR,,0.00,WeatherDisplay:10.37,2013-06-02 23:34:00,
2013-06-03 00:39:00,53.4,48.4,30.46,WSW,245,2.3,2.3,83,0.00,CLR,,0.00,WeatherDisplay:10.37,2013-06-02 23:39:00,
2013-06-03 00:44:00,53.6,48.2,30.46,WSW,251,2.0,2.0,82,0.00,CLR,,0.00,WeatherDisplay:10.37,2013-06-02 23:44:00,
2013-06-03 00:49:00,53.7,48.0,30.46,WSW,245,2.3,2.3,81,0.00,CLR,,0.00,WeatherDisplay:10.37,2013-06-02 23:49:00,
2013-06-03 00:54:00,53.8,48.1,30.46,WSW,243,2.3,2.3,81,0.00,CLR,,0.00,WeatherDisplay:10.37,2013-06-02 23:54:00,
2013-06-03 00:59:00,53.8,48.1,30.46,WSW,243,2.3,2.3,81,0.00,CLR,,0.00,WeatherDisplay:10.37,2013-06-02 23:59:00,
2013-06-03 01:04:00,53.6,48.2,30.46,SW,228,1.2,0.0,82,0.00,CLR,,0.00,WeatherDisplay:10.37,2013-06-03 00:04:00,
2013-06-03 01:09:00,53.5,48.5,30.46,SW,229,1.2,0.0,83,0.00,CLR,,0.00,WeatherDisplay:10.37,2013-06-03 00:09:00,
2013-06-03 01:14:00,53.6,47.9,30.46,WSW,242,2.3,2.3,81,0.00,CLR,,0.00,WeatherDisplay:10.37,2013-06-03 00:14:00,
2013-06-03 01:19:00,53.6,48.2,30.46,SW,236,1.2,0.0,82,0.00,CLR,,0.00,WeatherDisplay:10.37,2013-06-03 00:19:00,
2013-06-03 01:24:00,53.5,47.8,30.46,WSW,254,0.0,0.0,81,0.00,CLR,,0.00,WeatherDisplay:10.37,2013-06-03 00:24:00,
2013-06-03 01:29:00,53.6,47.9,30.46,WSW,254,1.2,1.2,81,0.00,CLR,,0.00,WeatherDisplay:10.37,2013-06-03 00:29:00,
2013-06-03 01:34:00,53.6,47.6,30.46,WSW,254,1.2,1.2,80,0.00,CLR,,0.00,WeatherDisplay:10.37,2013-06-03 00:34:00,
2013-06-03 01:39:00,53.7,47.7,30.46,West,279,2.3,2.3,80,0.00,CLR,,0.00,WeatherDisplay:10.37,2013-06-03 00:39:00,
2013-06-03 01:44:00,53.7,47.7,30.46,West,280,2.3,2.3,80,0.00,CLR,,0.00,WeatherDisplay:10.37,2013-06-03 00:44:00,
2013-06-03 01:49:00,53.7,47.7,30.46,WNW,282,1.2,1.2,80,0.00,CLR,,0.00,WeatherDisplay:10.37,2013-06-03 00:49:00,
2013-06-03 01:54:00,53.7,47.7,30.46,West,281,0.0,0.0,80,0.00,CLR,,0.00,WeatherDisplay:10.37,2013-06-03 00:54:00,
2013-06-03 01:59:00,53.7,47.7,30.46,WNW,282,0.0,0.0,80,0.00,CLR,,0.00,WeatherDisplay:10.37,2013-06-03 00:59:00,
2013-06-03 02:04:00,53.7,47.7,30.46,West,280,1.2,1.2,80,0.00,CLR,,0.00,WeatherDisplay:10.37,2013-06-03 01:04:00,
2013-06-03 02:09:00,53.7,47.7,30.46,WNW,283,0.0,0.0,80,0.00,CLR,,0.00,WeatherDisplay:10.37,2013-06-03 01:09:00,
2013-06-03 02:14:00,53.7,47.7,30.46,WNW,282,1.2,0.0,80,0.00,CLR,,0.00,WeatherDisplay:10.37,2013-06-03 01:14:00,
2013-06-03 02:19:00,53.7,47.7,30.46,WNW,283,0.0,0.0,80,0.00,CLR,,0.00,WeatherDisplay:10.37,2013-06-03 01:19:00,
2013-06-03 02:24:00,53.8,47.8,30.46,NW,311,1.2,1.2,80,0.00,CLR,,0.00,WeatherDisplay:10.37,2013-06-03 01:24:00,
2013-06-03 02:29:00,53.9,47.5,30.46,NW,308,0.0,0.0,79,0.00,CLR,,0.00,WeatherDisplay:10.37,2013-06-03 01:29:00,
2013-06-03 02:34:00,53.9,47.9,30.46,NW,308,0.0,0.0,80,0.00,CLR,,0.00,WeatherDisplay:10.37,2013-06-03 01:34:00,
2013-06-03 02:39:00,53.9,47.9,30.46,NW,308,1.2,0.0,80,0.00,CLR,,0.00,WeatherDisplay:10.37,2013-06-03 01:39:00,
2013-06-03 02:44:00,53.9,47.9,30.46,NW,306,0.0,0.0,80,0.00,CLR,,0.00,WeatherDisplay:10.37,2013-06-03 01:44:00,
2013-06-03 02:49:00,53.8,48.1,30.46,NW,304,1.2,1.2,81,0.00,CLR,,0.00,WeatherDisplay:10.37,2013-06-03 01:49:00,
2013-06-03 02:54:00,53.7,47.7,30.46,WSW,245,1.0,1.0,80,0.00,CLR,,0.00,WeatherDisplay:10.37,2013-06-03 01:54:00,
2013-06-03 02:59:00,53.7,48.0,30.46,SW,230,3.0,3.0,81,0.00,CLR,,0.00,WeatherDisplay:10.37,2013-06-03 01:59:00,
2013-06-03 03:04:00,53.7,48.0,30.46,WSW,247,1.2,1.2,81,0.00,CLR,,0.00,WeatherDisplay:10.37,2013-06-03 02:04:00,
2013-06-03 03:09:00,53.7,48.0,30.46,WSW,238,3.5,3.5,81,0.00,CLR,,0.00,WeatherDisplay:10.37,2013-06-03 02:09:00,
2013-06-03 03:14:00,53.7,48.0,30.46,WSW,238,0.0,0.0,81,0.00,CLR,,0.00,WeatherDisplay:10.37,2013-06-03 02:14:00,
2013-06-03 03:19:00,53.6,47.9,30.46,WSW,239,1.2,1.2,81,0.00,CLR,,0.00,WeatherDisplay:10.37,2013-06-03 02:19:00,
2013-06-03 03:24:00,53.7,48.3,30.46,SW,221,2.3,2.3,82,0.00,CLR,,0.00,WeatherDisplay:10.37,2013-06-03 02:24:00,
2013-06-03 03:29:00,53.7,48.3,30.46,SSW,203,1.2,1.2,82,0.00,CLR,,0.00,WeatherDisplay:10.37,2013-06-03 02:29:00,
2013-06-03 03:34:00,53.6,48.2,30.46,SW,224,2.3,2.3,82,0.00,CLR,,0.00,WeatherDisplay:10.37,2013-06-03 02:34:00,
2013-06-03 03:39:00,53.6,48.2,30.46,SW,221,2.3,2.3,82,0.00,CLR,,0.00,WeatherDisplay:10.37,2013-06-03 02:39:00,
2013-06-03 03:44:00,53.6,48.6,30.46,SW,221,1.0,0.0,83,0.00,CLR,,0.00,WeatherDisplay:10.37,2013-06-03 02:44:00,
2013-06-03 03:49:00,53.5,48.5,30.46,SW,220,0.0,0.0,83,0.00,CLR,,0.00,WeatherDisplay:10.37,2013-06-03 02:49:00,
2013-06-03 03:54:00,53.4,48.4,30.46,SW,221,1.2,0.0,83,0.00,CLR,,0.00,WeatherDisplay:10.37,2013-06-03 02:54:00,
2013-06-03 03:59:00,53.3,48.6,30.46,SW,224,0.0,0.0,84,0.00,CLR,,0.00,WeatherDisplay:10.37,2013-06-03 02:59:00,
2013-06-03 04:04:00,53.2,48.5,30.46,SW,224,0.0,0.0,84,0.00,CLR,,0.00,WeatherDisplay:10.37,2013-06-03 03:04:00,
2013-06-03 04:09:00,53.2,48.5,30.46,SW,224,2.3,2.3,84,0.00,CLR,,0.00,WeatherDisplay:10.37,2013-06-03 03:09:00,
2013-06-03 04:14:00,53.0,48.6,30.46,SW,228,4.6,4.6,85,0.00,CLR,,0.00,WeatherDisplay:10.37,2013-06-03 03:14:00,
2013-06-03 04:19:00,52.6,48.8,30.46,WSW,249,2.3,2.3,87,0.00,CLR,,0.00,WeatherDisplay:10.37,2013-06-03 03:19:00,
2013-06-03 04:24:00,52.4,48.9,30.46,WSW,243,1.2,0.0,88,0.00,CLR,,0.00,WeatherDisplay:10.37,2013-06-03 03:24:00,
2013-06-03 04:29:00,52.3,49.2,30.46,WSW,243,1.2,1.2,89,0.00,CLR,,0.00,WeatherDisplay:10.37,2013-06-03 03:29:00,
2013-06-03 04:34:00,52.2,49.1,30.46,WSW,243,1.2,1.2,89,0.00,CLR,,0.00,WeatherDisplay:10.37,2013-06-03 03:34:00,
2013-06-03 04:39:00,52.1,49.0,30.47,WSW,243,0.0,0.0,89,0.00,CLR,,0.00,WeatherDisplay:10.37,2013-06-03 03:39:00,
2013-06-03 04:44:00,52.1,49.3,30.47,WSW,243,1.2,0.0,90,0.00,CLR,,0.00,WeatherDisplay:10.37,2013-06-03 03:44:00,
2013-06-03 04:49:00,52.1,49.3,30.47,WSW,243,0.0,0.0,90,0.00,CLR,,0.00,WeatherDisplay:10.37,2013-06-03 03:49:00,
2013-06-03 04:54:00,52.1,49.3,30.47,WSW,243,0.0,0.0,90,0.00,CLR,,0.00,WeatherDisplay:10.37,2013-06-03 03:54:00,
2013-06-03 04:59:00,52.1,49.3,30.47,WSW,243,0.0,0.0,90,0.00,CLR,,0.00,WeatherDisplay:10.37,2013-06-03 03:59:00,
2013-06-03 05:01:00,52.2,49.4,30.47,WSW,257,1.2,1.2,90,0.00,CLR,,0.00,WeatherDisplay:10.37,2013-06-03 04:01:00,
2013-06-03 05:02:00,52.2,49.4,30.47,WSW,257,1.2,0.0,90,0.00,CLR,,0.00,WeatherDisplay:10.37,2013-06-03 04:02:00,
2013-06-03 05:07:00,52.3,49.5,30.47,West,266,2.3,2.3,90,0.00,CLR,,0.00,WeatherDisplay:10.37,2013-06-03 04:07:00,
2013-06-03 05:12:00,52.3,49.5,30.47,West,265,0.0,0.0,90,0.00,CLR,,0.00,WeatherDisplay:10.37,2013-06-03 04:12:00,
2013-06-03 05:17:00,52.3,49.5,30.47,West,265,0.0,0.0,90,0.00,CLR,,0.00,WeatherDisplay:10.37,2013-06-03 04:17:00,
2013-06-03 05:22:00,52.3,49.5,30.47,West,266,0.0,0.0,90,0.00,CLR,,0.00,WeatherDisplay:10.37,2013-06-03 04:22:00,
2013-06-03 05:27:00,52.4,49.6,30.47,West,266,0.0,0.0,90,0.00,CLR,,0.00,WeatherDisplay:10.37,2013-06-03 04:27:00,
2013-06-03 05:32:00,52.3,49.5,30.47,West,266,0.0,0.0,90,0.00,CLR,,0.00,WeatherDisplay:10.37,2013-06-03 04:32:00,
2013-06-03 05:37:00,52.2,49.4,30.47,West,266,1.2,1.2,90,0.00,CLR,,0.00,WeatherDisplay:10.37,2013-06-03 04:37:00,
2013-06-03 05:42:00,52.1,49.3,30.48,West,281,2.3,2.3,90,0.00,CLR,,0.00,WeatherDisplay:10.37,2013-06-03 04:42:00,
2013-06-03 05:47:00,52.1,49.3,30.48,WNW,291,1.2,1.2,90,0.00,CLR,,0.00,WeatherDisplay:10.37,2013-06-03 04:47:00,
2013-06-03 05:52:00,52.2,49.4,30.48,WNW,291,3.5,3.5,90,0.00,CLR,,0.00,WeatherDisplay:10.37,2013-06-03 04:52:00,
2013-06-03 05:57:00,52.0,49.2,30.48,WNW,293,3.5,3.5,90,0.00,CLR,,0.00,WeatherDisplay:10.37,2013-06-03 04:57:00,
2013-06-03 06:02:00,51.8,49.3,30.48,WNW,293,3.5,3.5,91,0.00,CLR,,0.00,WeatherDisplay:10.37,2013-06-03 05:02:00,
2013-06-03 06:07:00,51.8,49.5,30.48,WNW,300,3.5,3.5,92,0.00,CLR,,0.00,WeatherDisplay:10.37,2013-06-03 05:07:00,
2013-06-03 06:12:00,51.7,49.5,30.48,WNW,297,3.5,3.5,92,0.00,CLR,,0.00,WeatherDisplay:10.37,2013-06-03 05:12:00,
2013-06-03 06:17:00,51.6,49.4,30.48,WNW,293,3.0,3.0,92,0.00,CLR,,0.00,WeatherDisplay:10.37,2013-06-03 05:17:00,
2013-06-03 06:22:00,51.6,49.6,30.48,WNW,293,2.3,2.3,93,0.00,CLR,,0.00,WeatherDisplay:10.37,2013-06-03 05:22:00,
2013-06-03 06:27:00,51.6,49.6,30.49,WNW,292,3.5,3.5,93,0.00,CLR,,0.00,WeatherDisplay:10.37,2013-06-03 05:27:00,
2013-06-03 06:32:00,51.6,49.6,30.49,WNW,292,1.2,1.2,93,0.00,CLR,,0.00,WeatherDisplay:10.37,2013-06-03 05:32:00,
2013-06-03 06:37:00,51.7,49.7,30.49,WNW,290,2.3,2.3,93,0.00,CLR,,0.00,WeatherDisplay:10.37,2013-06-03 05:37:00,
2013-06-03 06:42:00,51.6,49.9,30.49,WNW,289,1.2,1.2,94,0.00,CLR,,0.00,WeatherDisplay:10.37,2013-06-03 05:42:00,
2013-06-03 06:47:00,51.7,50.0,30.49,WNW,289,0.0,0.0,94,0.00,CLR,,0.00,WeatherDisplay:10.37,2013-06-03 05:47:00,
2013-06-03 06:52:00,51.8,50.1,30.49,WNW,288,0.0,0.0,94,0.00,CLR,,0.00,WeatherDisplay:10.37,2013-06-03 05:52:00,
2013-06-03 06:57:00,51.7,50.0,30.49,WNW,289,0.0,0.0,94,0.00,CLR,,0.00,WeatherDisplay:10.37,2013-06-03 05:57:00,
2013-06-03 07:02:00,51.8,50.1,30.50,WNW,288,0.0,0.0,94,0.00,CLR,,0.00,WeatherDisplay:10.37,2013-06-03 06:02:00,
2013-06-03 07:08:00,51.8,50.1,30.50,WNW,286,0.0,0.0,94,0.00,CLR,,0.00,WeatherDisplay:10.37,2013-06-03 06:08:00,
2013-06-03 07:13:00,51.7,50.0,30.50,WNW,286,0.0,0.0,94,0.00,CLR,,0.00,WeatherDisplay:10.37,2013-06-03 06:13:00,
2013-06-03 07:18:00,51.6,49.9,30.50,WNW,286,1.2,1.2,94,0.00,CLR,,0.00,WeatherDisplay:10.37,2013-06-03 06:18:00,
2013-06-03 07:23:00,51.6,49.9,30.50,WNW,286,2.3,2.3,94,0.00,CLR,,0.00,WeatherDisplay:10.37,2013-06-03 06:23:00,
2013-06-03 07:28:00,51.7,50.0,30.50,WNW,286,1.2,1.2,94,0.00,CLR,,0.00,WeatherDisplay:10.37,2013-06-03 06:28:00,
2013-06-03 07:33:00,51.8,50.1,30.50,WNW,287,1.2,1.2,94,0.00,CLR,,0.00,WeatherDisplay:10.37,2013-06-03 06:33:00,
2013-06-03 07:38:00,51.8,50.1,30.50,WNW,286,1.2,1.2,94,0.00,CLR,,0.00,WeatherDisplay:10.37,2013-06-03 06:38:00,
2013-06-03 07:43:00,51.9,50.2,30.50,WNW,287,1.2,1.2,94,0.00,CLR,,0.00,WeatherDisplay:10.37,2013-06-03 06:43:00,
2013-06-03 07:48:00,52.0,50.3,30.50,WNW,287,1.2,0.0,94,0.00,CLR,,0.00,WeatherDisplay:10.37,2013-06-03 06:48:00,
2013-06-03 07:53:00,52.1,50.4,30.50,WNW,286,0.0,0.0,94,0.00,CLR,,0.00,WeatherDisplay:10.37,2013-06-03 06:53:00,
2013-06-03 07:58:00,52.2,50.5,30.51,West,280,1.2,1.2,94,0.00,CLR,,0.00,WeatherDisplay:10.37,2013-06-03 06:58:00,
2013-06-03 08:03:00,52.2,50.5,30.51,West,266,0.0,0.1,94,0.00,CLR,,0.00,WeatherDisplay:10.37,2013-06-03 07:03:00,
2013-06-03 08:08:00,52.3,50.6,30.51,West,267,0.0,0.0,94,0.00,CLR,,0.00,WeatherDisplay:10.37,2013-06-03 07:08:00,
2013-06-03 08:13:00,52.4,50.7,30.51,West,266,0.0,0.0,94,0.00,CLR,,0.00,WeatherDisplay:10.37,2013-06-03 07:13:00,
2013-06-03 08:18:00,52.5,50.8,30.51,West,266,0.0,0.0,94,0.00,CLR,,0.00,WeatherDisplay:10.37,2013-06-03 07:18:00,
2013-06-03 08:23:00,52.5,50.8,30.51,West,267,0.0,0.0,94,0.00,CLR,,0.00,WeatherDisplay:10.37,2013-06-03 07:23:00,
2013-06-03 08:28:00,52.4,50.7,30.51,West,266,0.0,0.0,94,0.00,CLR,,0.00,WeatherDisplay:10.37,2013-06-03 07:28:00,
2013-06-03 08:33:00,52.5,50.8,30.51,West,267,1.2,0.0,94,0.00,CLR,,0.00,WeatherDisplay:10.37,2013-06-03 07:33:00,
2013-06-03 08:38:00,52.6,50.9,30.51,West,267,0.0,0.1,94,0.00,CLR,,0.00,WeatherDisplay:10.37,2013-06-03 07:38:00,
2013-06-03 08:43:00,52.6,50.9,30.51,West,266,0.0,0.0,94,0.00,CLR,,0.00,WeatherDisplay:10.37,2013-06-03 07:43:00,
2013-06-03 08:48:00,52.8,51.1,30.51,West,267,0.0,0.0,94,0.00,CLR,,0.00,WeatherDisplay:10.37,2013-06-03 07:48:00,
2013-06-03 08:53:00,52.8,51.1,30.51,West,267,0.0,0.0,94,0.00,CLR,,0.00,WeatherDisplay:10.37,2013-06-03 07:53:00,
2013-06-03 08:58:00,52.8,51.1,30.51,West,267,0.0,0.0,94,0.00,CLR,,0.00,WeatherDisplay:10.37,2013-06-03 07:58:00,
2013-06-03 09:03:00,52.9,51.2,30.51,East,100,3.0,3.0,94,0.00,CLR,,0.00,WeatherDisplay:10.37,2013-06-03 08:03:00,
2013-06-03 09:08:00,52.6,50.9,30.51,ESE,105,2.3,2.3,94,0.00,CLR,,0.00,WeatherDisplay:10.37,2013-06-03 08:08:00,
2013-06-03 09:13:00,52.4,50.7,30.51,East,96,3.5,3.5,94,0.00,CLR,,0.00,WeatherDisplay:10.37,2013-06-03 08:13:00,
2013-06-03 09:18:00,52.3,50.6,30.51,SE,124,2.3,2.3,94,0.00,CLR,,0.00,WeatherDisplay:10.37,2013-06-03 08:18:00,
2013-06-03 09:23:00,52.2,50.5,30.51,SE,131,2.3,2.3,94,0.00,CLR,,0.00,WeatherDisplay:10.37,2013-06-03 08:23:00,
2013-06-03 09:28:00,52.2,50.8,30.51,SE,142,2.3,2.3,95,0.00,CLR,,0.00,WeatherDisplay:10.37,2013-06-03 08:28:00,
2013-06-03 09:33:00,52.4,51.0,30.51,SE,143,1.2,1.2,95,0.00,CLR,,0.00,WeatherDisplay:10.37,2013-06-03 08:33:00,
2013-06-03 09:38:00,52.4,51.0,30.51,SE,142,1.2,1.2,95,0.00,CLR,,0.00,WeatherDisplay:10.37,2013-06-03 08:38:00,
2013-06-03 09:44:00,52.5,51.1,30.51,SE,142,1.2,0.0,95,0.00,CLR,,0.00,WeatherDisplay:10.37,2013-06-03 08:44:00,
2013-06-03 09:49:00,52.6,51.2,30.51,SE,142,1.2,1.2,95,0.00,CLR,,0.00,WeatherDisplay:10.37,2013-06-03 08:49:00,
2013-06-03 09:54:00,52.7,51.3,30.51,SE,142,1.2,1.2,95,0.00,CLR,,0.00,WeatherDisplay:10.37,2013-06-03 08:54:00,
2013-06-03 10:00:00,53.0,51.6,30.51,SE,142,1.2,1.2,95,0.00,CLR,,0.00,WeatherDisplay:10.37,2013-06-03 09:00:00,
2013-06-03 10:06:00,53.2,51.5,30.51,SE,143,1.2,1.2,94,0.00,CLR,,0.00,WeatherDisplay:10.37,2013-06-03 09:06:00,
2013-06-03 10:11:00,53.4,51.7,30.50,SE,134,2.3,2.3,94,0.00,CLR,,0.00,WeatherDisplay:10.37,2013-06-03 09:11:00,
2013-06-03 10:16:00,53.5,51.8,30.50,SE,132,2.3,2.3,94,0.00,CLR,,0.00,WeatherDisplay:10.37,2013-06-03 09:16:00,
2013-06-03 10:21:00,54.0,52.3,30.50,SE,133,1.2,1.2,94,0.00,CLR,,0.00,WeatherDisplay:10.37,2013-06-03 09:21:00,
2013-06-03 10:26:00,54.3,52.6,30.50,SE,132,0.0,0.0,94,0.00,CLR,,0.00,WeatherDisplay:10.37,2013-06-03 09:26:00,
2013-06-03 10:31:00,54.4,52.7,30.51,SE,132,0.0,0.0,94,0.00,CLR,,0.00,WeatherDisplay:10.37,2013-06-03 09:31:00,
2013-06-03 10:36:00,54.4,52.4,30.51,SE,132,0.0,0.0,93,0.00,CLR,,0.00,WeatherDisplay:10.37,2013-06-03 09:36:00,
2013-06-03 10:41:00,54.6,52.6,30.51,ESE,113,1.2,1.2,93,0.00,CLR,,0.00,WeatherDisplay:10.37,2013-06-03 09:41:00,
2013-06-03 10:46:00,54.9,52.9,30.51,ESE,113,1.2,1.2,93,0.00,CLR,,0.00,WeatherDisplay:10.37,2013-06-03 09:46:00,
2013-06-03 10:51:00,55.3,53.3,30.51,ESE,113,1.2,1.2,93,0.00,CLR,,0.00,WeatherDisplay:10.37,2013-06-03 09:51:00,
2013-06-03 10:57:00,55.6,53.3,30.51,South,184,2.3,2.3,92,0.00,CLR,,0.00,WeatherDisplay:10.37,2013-06-03 09:57:00,
2013-06-03 11:02:00,55.5,52.9,30.51,SSW,209,2.3,2.3,91,0.00,CLR,,0.00,WeatherDisplay:10.37,2013-06-03 10:02:00,
2013-06-03 11:08:00,55.5,52.9,30.51,WSW,240,2.3,2.3,91,0.00,CLR,,0.00,WeatherDisplay:10.37,2013-06-03 10:08:00,
2013-06-03 11:13:00,55.6,53.0,30.51,WSW,246,2.3,2.3,91,0.00,CLR,,0.00,WeatherDisplay:10.37,2013-06-03 10:13:00,
2013-06-03 11:18:00,55.9,53.3,30.51,WSW,246,1.2,1.2,91,0.00,CLR,,0.00,WeatherDisplay:10.37,2013-06-03 10:18:00,
2013-06-03 11:23:00,56.8,54.5,30.51,WSW,246,1.2,1.2,92,0.00,CLR,,0.00,WeatherDisplay:10.37,2013-06-03 10:23:00,
2013-06-03 11:29:00,57.1,53.9,30.51,WSW,246,1.2,1.2,89,0.00,CLR,,0.00,WeatherDisplay:10.37,2013-06-03 10:29:00,
2013-06-03 11:35:00,57.5,54.3,30.51,WSW,246,1.2,1.2,89,0.00,CLR,,0.00,WeatherDisplay:10.37,2013-06-03 10:35:00,
2013-06-03 11:41:00,58.3,54.8,30.51,WSW,246,0.0,0.0,88,0.00,CLR,,0.00,WeatherDisplay:10.37,2013-06-03 10:41:00,
2013-06-03 11:46:00,59.1,54.9,30.51,WSW,245,0.0,0.0,86,0.00,CLR,,0.00,WeatherDisplay:10.37,2013-06-03 10:46:00,
2013-06-03 11:51:00,60.0,55.8,30.51,WSW,245,0.0,0.0,86,0.00,CLR,,0.00,WeatherDisplay:10.37,2013-06-03 10:51:00,
2013-06-03 11:57:00,60.8,55.3,30.51,WSW,245,0.0,0.0,82,0.00,CLR,,0.00,WeatherDisplay:10.37,2013-06-03 10:57:00,
2013-06-03 12:02:00,61.3,55.8,30.51,WSW,247,0.0,0.0,82,0.00,CLR,,0.00,WeatherDisplay:10.37,2013-06-03 11:02:00,
2013-06-03 12:07:00,61.5,55.3,30.51,WSW,240,2.3,2.3,80,0.00,CLR,,0.00,WeatherDisplay:10.37,2013-06-03 11:07:00,
2013-06-03 12:12:00,61.8,55.6,30.51,SW,232,3.5,3.5,80,0.00,CLR,,0.00,WeatherDisplay:10.37,2013-06-03 11:12:00,
2013-06-03 12:17:00,61.8,55.2,30.51,SW,222,3.5,3.5,79,0.00,CLR,,0.00,WeatherDisplay:10.37,2013-06-03 11:17:00,
2013-06-03 12:22:00,61.7,55.5,30.51,WSW,239,3.5,3.5,80,0.00,CLR,,0.00,WeatherDisplay:10.37,2013-06-03 11:22:00,
2013-06-03 12:27:00,61.9,55.7,30.51,WSW,238,2.3,2.3,80,0.00,CLR,,0.00,WeatherDisplay:10.37,2013-06-03 11:27:00,
2013-06-03 12:32:00,62.1,55.9,30.51,WSW,251,2.3,2.3,80,0.00,CLR,,0.00,WeatherDisplay:10.37,2013-06-03 11:32:00,
2013-06-03 12:37:00,62.8,56.2,30.51,WSW,256,3.0,3.0,79,0.00,CLR,,0.00,WeatherDisplay:10.37,2013-06-03 11:37:00,
2013-06-03 12:43:00,62.2,55.6,30.51,West,260,3.5,3.5,79,0.00,CLR,,0.00,WeatherDisplay:10.37,2013-06-03 11:43:00,
2013-06-03 12:48:00,61.2,55.3,30.51,WSW,246,3.5,3.5,81,0.00,CLR,,0.00,WeatherDisplay:10.37,2013-06-03 11:48:00,
2013-06-03 12:53:00,60.1,54.9,30.51,SSW,205,6.9,6.9,83,0.00,CLR,,0.00,WeatherDisplay:10.37,2013-06-03 11:53:00,
2013-06-03 12:58:00,59.6,54.8,30.51,SW,235,8.1,8.1,84,0.00,CLR,,0.00,WeatherDisplay:10.37,2013-06-03 11:58:00,
2013-06-03 13:03:00,59.3,54.5,30.51,SSW,205,6.9,6.9,84,0.00,CLR,,0.00,WeatherDisplay:10.37,2013-06-03 12:03:00,
2013-06-03 13:08:00,59.3,54.5,30.51,SSW,211,7.0,7.0,84,0.00,CLR,,0.00,WeatherDisplay:10.37,2013-06-03 12:08:00,
2013-06-03 13:13:00,59.3,54.8,30.51,SW,217,5.8,5.8,85,0.00,CLR,,0.00,WeatherDisplay:10.37,2013-06-03 12:13:00,
2013-06-03 13:18:00,59.7,55.2,30.50,SW,217,4.6,4.6,85,0.00,CLR,,0.00,WeatherDisplay:10.37,2013-06-03 12:18:00,
2013-06-03 13:23:00,60.4,55.5,30.50,South,185,4.0,4.0,84,0.00,CLR,,0.00,WeatherDisplay:10.37,2013-06-03 12:23:00,
2013-06-03 13:28:00,60.6,55.4,30.50,South,188,3.5,3.5,83,0.00,CLR,,0.00,WeatherDisplay:10.37,2013-06-03 12:28:00,
2013-06-03 13:33:00,61.0,55.8,30.50,SW,230,6.0,6.0,83,0.00,CLR,,0.00,WeatherDisplay:10.37,2013-06-03 12:33:00,
2013-06-03 13:38:00,61.8,56.6,30.50,WSW,245,5.8,5.8,83,0.00,CLR,,0.00,WeatherDisplay:10.37,2013-06-03 12:38:00,
2013-06-03 13:44:00,61.7,56.1,30.50,WSW,246,6.9,6.9,82,0.00,CLR,,0.00,WeatherDisplay:10.37,2013-06-03 12:44:00,
2013-06-03 13:49:00,61.8,56.2,30.50,SSW,205,7.0,7.0,82,0.00,CLR,,0.00,WeatherDisplay:10.37,2013-06-03 12:49:00,
2013-06-03 13:55:00,61.7,56.1,30.50,SW,224,8.1,8.1,82,0.00,CLR,,0.00,WeatherDisplay:10.37,2013-06-03 12:55:00,
2013-06-03 14:00:00,62.1,56.5,30.50,WSW,238,5.8,5.8,82,0.00,CLR,,0.00,WeatherDisplay:10.37,2013-06-03 13:00:00,
2013-06-03 14:05:00,62.6,57.0,30.50,WSW,245,5.8,5.8,82,0.00,CLR,,0.00,WeatherDisplay:10.37,2013-06-03 13:05:00,
2013-06-03 14:11:00,63.3,57.4,30.49,WSW,247,8.1,8.1,81,0.00,CLR,,0.00,WeatherDisplay:10.37,2013-06-03 13:11:00,
2013-06-03 14:16:00,63.7,57.1,30.49,WSW,252,9.2,9.2,79,0.00,CLR,,0.00,WeatherDisplay:10.37,2013-06-03 13:16:00,
2013-06-03 14:22:00,63.3,57.4,30.49,WSW,243,5.8,5.8,81,0.00,CLR,,0.00,WeatherDisplay:10.37,2013-06-03 13:22:00,
2013-06-03 14:27:00,63.3,56.7,30.49,WSW,240,6.9,6.9,79,0.00,CLR,,0.00,WeatherDisplay:10.37,2013-06-03 13:27:00,
2013-06-03 14:33:00,63.3,57.0,30.49,WSW,254,9.2,9.2,80,0.00,CLR,,0.00,WeatherDisplay:10.37,2013-06-03 13:33:00,
2013-06-03 14:39:00,63.7,57.1,30.49,WSW,245,5.8,5.8,79,0.00,CLR,,0.00,WeatherDisplay:10.37,2013-06-03 13:39:00,
2013-06-03 14:44:00,64.2,57.5,30.49,WSW,253,5.8,5.8,79,0.00,CLR,,0.00,WeatherDisplay:10.37,2013-06-03 13:44:00,
2013-06-03 14:49:00,65.4,58.4,30.49,WSW,257,5.0,5.0,78,0.00,CLR,,0.00,WeatherDisplay:10.37,2013-06-03 13:49:00,
2013-06-03 14:54:00,65.1,58.1,30.49,WSW,250,5.0,5.0,78,0.00,CLR,,0.00,WeatherDisplay:10.37,2013-06-03 13:54:00,
2013-06-03 14:59:00,64.7,57.3,30.49,WSW,238,5.8,5.8,77,0.00,CLR,,0.00,WeatherDisplay:10.37,2013-06-03 13:59:00,
2013-06-03 15:04:00,65.2,58.2,30.49,WSW,255,4.6,4.6,78,0.00,CLR,,0.00,WeatherDisplay:10.37,2013-06-03 14:04:00,
2013-06-03 15:09:00,65.7,57.6,30.49,WSW,251,6.9,6.9,75,0.00,CLR,,0.00,WeatherDisplay:10.37,2013-06-03 14:09:00,
2013-06-03 15:15:00,64.8,57.1,30.49,WSW,243,10.4,10.4,76,0.00,CLR,,0.00,WeatherDisplay:10.37,2013-06-03 14:15:00,
2013-06-03 15:20:00,63.5,56.2,30.49,SW,226,11.5,11.5,77,0.00,CLR,,0.00,WeatherDisplay:10.37,2013-06-03 14:20:00,
2013-06-03 15:25:00,63.1,56.5,30.49,WSW,243,8.1,8.1,79,0.00,CLR,,0.00,WeatherDisplay:10.37,2013-06-03 14:25:00,
2013-06-03 15:30:00,62.9,56.3,30.49,SW,226,10.0,10.0,79,0.00,CLR,,0.00,WeatherDisplay:10.37,2013-06-03 14:30:00,
2013-06-03 15:35:00,62.6,56.3,30.49,WSW,249,10.4,10.4,80,0.00,CLR,,0.00,WeatherDisplay:10.37,2013-06-03 14:35:00,
2013-06-03 15:40:00,62.5,56.2,30.49,SW,230,8.1,8.1,80,0.00,CLR,,0.00,WeatherDisplay:10.37,2013-06-03 14:40:00,
2013-06-03 15:46:00,62.3,56.0,30.49,SW,225,9.2,9.2,80,0.00,CLR,,0.00,WeatherDisplay:10.37,2013-06-03 14:46:00,
2013-06-03 15:51:00,62.1,55.9,30.49,WSW,254,9.2,9.2,80,0.00,CLR,,0.00,WeatherDisplay:10.37,2013-06-03 14:51:00,
2013-06-03 15:56:00,62.0,56.1,30.48,SSW,205,10.4,10.4,81,0.00,CLR,,0.00,WeatherDisplay:10.37,2013-06-03 14:56:00,
2013-06-03 16:02:00,62.2,56.0,30.48,WSW,245,10.4,10.4,80,0.00,CLR,,0.00,WeatherDisplay:10.37,2013-06-03 15:02:00,
2013-06-03 16:07:00,62.2,56.3,30.48,WSW,238,10.4,10.4,81,0.00,CLR,,0.00,WeatherDisplay:10.37,2013-06-03 15:07:00,
2013-06-03 16:12:00,62.1,56.2,30.48,WSW,248,10.4,10.4,81,0.00,CLR,,0.00,WeatherDisplay:10.37,2013-06-03 15:12:00,
2013-06-03 16:17:00,61.9,56.3,30.48,SW,233,12.7,12.7,82,0.00,CLR,,0.00,WeatherDisplay:10.37,2013-06-03 15:17:00,
2013-06-03 16:22:00,61.7,56.5,30.49,WSW,247,9.2,9.2,83,0.00,CLR,,0.00,WeatherDisplay:10.37,2013-06-03 15:22:00,
2013-06-03 16:27:00,61.8,56.6,30.49,WSW,253,9.2,9.2,83,0.00,CLR,,0.00,WeatherDisplay:10.37,2013-06-03 15:27:00,
2013-06-03 16:32:00,62.2,56.6,30.48,SW,235,11.5,11.5,82,0.00,CLR,,0.00,WeatherDisplay:10.37,2013-06-03 15:32:00,
2013-06-03 16:37:00,62.3,56.7,30.48,WSW,238,11.5,11.5,82,0.00,CLR,,0.00,WeatherDisplay:10.37,2013-06-03 15:37:00,
2013-06-03 16:43:00,62.0,56.4,30.48,SW,236,10.4,10.4,82,0.00,CLR,,0.00,WeatherDisplay:10.37,2013-06-03 15:43:00,
2013-06-03 16:48:00,62.0,56.4,30.48,SW,225,10.4,10.4,82,0.00,CLR,,0.00,WeatherDisplay:10.37,2013-06-03 15:48:00,
2013-06-03 16:54:00,62.2,56.6,30.48,SW,221,11.5,11.5,82,0.00,CLR,,0.00,WeatherDisplay:10.37,2013-06-03 15:54:00,
2013-06-03 16:59:00,62.4,56.8,30.48,WSW,239,9.2,9.2,82,0.00,CLR,,0.00,WeatherDisplay:10.37,2013-06-03 15:59:00,
2013-06-03 17:04:00,62.7,57.1,30.48,SSW,205,10.4,10.4,82,0.00,CLR,,0.00,WeatherDisplay:10.37,2013-06-03 16:04:00,
2013-06-03 17:09:00,63.3,57.4,30.48,WSW,238,8.1,8.1,81,0.00,CLR,,0.00,WeatherDisplay:10.37,2013-06-03 16:09:00,
2013-06-03 17:14:00,63.9,58.0,30.48,WSW,253,3.5,3.5,81,0.00,CLR,,0.00,WeatherDisplay:10.37,2013-06-03 16:14:00,
2013-06-03 17:19:00,64.6,57.6,30.48,WSW,257,3.5,3.5,78,0.00,CLR,,0.00,WeatherDisplay:10.37,2013-06-03 16:19:00,
2013-06-03 17:24:00,65.6,58.2,30.48,West,259,3.5,3.5,77,0.00,CLR,,0.00,WeatherDisplay:10.37,2013-06-03 16:24:00,
2013-06-03 17:29:00,65.9,57.7,30.48,West,281,3.5,3.5,75,0.00,CLR,,0.00,WeatherDisplay:10.37,2013-06-03 16:29:00,
2013-06-03 17:34:00,65.3,57.2,30.48,WSW,247,5.0,5.0,75,0.00,CLR,,0.00,WeatherDisplay:10.37,2013-06-03 16:34:00,
2013-06-03 17:39:00,64.5,56.4,30.48,WSW,247,9.2,9.2,75,0.00,CLR,,0.00,WeatherDisplay:10.37,2013-06-03 16:39:00,
2013-06-03 17:44:00,64.5,56.8,30.48,WSW,250,4.6,4.6,76,0.00,CLR,,0.00,WeatherDisplay:10.37,2013-06-03 16:44:00,
2013-06-03 17:49:00,64.2,56.5,30.47,WSW,247,5.8,5.8,76,0.00,CLR,,0.00,WeatherDisplay:10.37,2013-06-03 16:49:00,
2013-06-03 17:55:00,64.6,56.9,30.47,West,276,3.5,3.5,76,0.00,CLR,,0.00,WeatherDisplay:10.37,2013-06-03 16:55:00,
2013-06-03 18:00:00,65.9,57.7,30.47,West,261,2.3,2.3,75,0.00,CLR,,0.00,WeatherDisplay:10.37,2013-06-03 17:00:00,
2013-06-03 18:05:00,66.1,57.2,30.47,WSW,256,2.3,2.3,73,0.00,CLR,,0.00,WeatherDisplay:10.37,2013-06-03 17:05:00,
2013-06-03 18:10:00,65.6,56.7,30.47,SW,232,3.5,3.5,73,0.00,CLR,,0.00,WeatherDisplay:10.37,2013-06-03 17:10:00,
2013-06-03 18:15:00,65.2,57.1,30.47,WSW,245,3.5,3.5,75,0.00,CLR,,0.00,WeatherDisplay:10.37,2013-06-03 17:15:00,
2013-06-03 18:20:00,65.8,58.0,30.47,West,265,2.3,2.3,76,0.00,CLR,,0.00,WeatherDisplay:10.37,2013-06-03 17:20:00,
2013-06-03 18:25:00,66.6,57.3,30.47,West,271,3.5,3.5,72,0.00,CLR,,0.00,WeatherDisplay:10.37,2013-06-03 17:25:00,
2013-06-03 18:31:00,67.1,57.4,30.47,West,269,4.0,4.0,71,0.00,CLR,,0.00,WeatherDisplay:10.37,2013-06-03 17:31:00,
2013-06-03 18:36:00,66.3,56.6,30.47,West,281,5.8,5.8,71,0.00,CLR,,0.00,WeatherDisplay:10.37,2013-06-03 17:36:00,
2013-06-03 18:42:00,65.4,56.5,30.47,West,276,3.5,3.5,73,0.00,CLR,,0.00,WeatherDisplay:10.37,2013-06-03 17:42:00,
2013-06-03 18:47:00,65.2,56.3,30.47,West,272,3.5,3.5,73,0.00,CLR,,0.00,WeatherDisplay:10.37,2013-06-03 17:47:00,
2013-06-03 18:52:00,65.2,56.7,30.47,WNW,282,3.5,3.5,74,0.00,CLR,,0.00,WeatherDisplay:10.37,2013-06-03 17:52:00,
2013-06-03 18:59:00,66.0,57.5,30.47,WNW,297,4.0,4.0,74,0.00,CLR,,0.00,WeatherDisplay:10.37,2013-06-03 17:59:00,
2013-06-03 19:04:00,66.2,56.9,30.47,WNW,286,4.6,4.6,72,0.00,CLR,,0.00,WeatherDisplay:10.37,2013-06-03 18:04:00,
2013-06-03 19:09:00,66.3,57.0,30.47,WNW,288,3.5,3.5,72,0.00,CLR,,0.00,WeatherDisplay:10.37,2013-06-03 18:09:00,
2013-06-03 19:14:00,66.2,56.9,30.47,WNW,288,3.5,3.5,72,0.00,CLR,,0.00,WeatherDisplay:10.37,2013-06-03 18:14:00,
2013-06-03 19:19:00,66.1,56.8,30.47,WNW,285,3.5,3.5,72,0.00,CLR,,0.00,WeatherDisplay:10.37,2013-06-03 18:19:00,
2013-06-03 19:24:00,66.1,56.8,30.47,West,276,4.0,4.0,72,0.00,CLR,,0.00,WeatherDisplay:10.37,2013-06-03 18:24:00,
2013-06-03 19:29:00,65.6,56.3,30.47,WNW,294,4.6,4.6,72,0.00,CLR,,0.00,WeatherDisplay:10.37,2013-06-03 18:29:00,
2013-06-03 19:35:00,66.0,57.1,30.47,West,271,3.5,3.5,73,0.00,CLR,,0.00,WeatherDisplay:10.37,2013-06-03 18:35:00,
2013-06-03 19:40:00,66.5,56.8,30.47,West,280,3.5,3.5,71,0.00,CLR,,0.00,WeatherDisplay:10.37,2013-06-03 18:40:00,
2013-06-03 19:45:00,67.0,57.3,30.47,West,276,3.5,3.5,71,0.00,CLR,,0.00,WeatherDisplay:10.37,2013-06-03 18:45:00,
2013-06-03 19:50:00,67.0,57.7,30.47,West,270,3.5,3.5,72,0.00,CLR,,0.00,WeatherDisplay:10.37,2013-06-03 18:50:00,
2013-06-03 19:57:00,65.4,56.5,30.47,WSW,257,5.8,5.8,73,0.00,CLR,,0.00,WeatherDisplay:10.37,2013-06-03 18:57:00,
2013-06-03 20:02:00,64.6,55.7,30.48,WNW,291,5.0,5.0,73,0.00,CLR,,0.00,WeatherDisplay:10.37,2013-06-03 19:02:00,
2013-06-03 20:07:00,64.4,55.9,30.48,WNW,297,5.0,5.0,74,0.00,CLR,,0.00,WeatherDisplay:10.37,2013-06-03 19:07:00,
2013-06-03 20:12:00,63.8,55.4,30.48,WNW,283,6.9,6.9,74,0.00,CLR,,0.00,WeatherDisplay:10.37,2013-06-03 19:12:00,
2013-06-03 20:17:00,63.4,55.3,30.48,WNW,291,6.9,6.9,75,0.00,CLR,,0.00,WeatherDisplay:10.37,2013-06-03 19:17:00,
2013-06-03 20:23:00,63.3,55.6,30.48,WNW,292,6.0,6.0,76,0.00,CLR,,0.00,WeatherDisplay:10.37,2013-06-03 19:23:00,
2013-06-03 20:28:00,63.1,55.4,30.48,WNW,293,6.0,6.0,76,0.00,CLR,,0.00,WeatherDisplay:10.37,2013-06-03 19:28:00,
2013-06-03 20:33:00,63.1,55.4,30.48,WNW,288,5.8,5.8,76,0.00,CLR,,0.00,WeatherDisplay:10.37,2013-06-03 19:33:00,
2013-06-03 20:38:00,63.1,55.4,30.48,WNW,286,5.8,5.8,76,0.00,CLR,,0.00,WeatherDisplay:10.37,2013-06-03 19:38:00,
2013-06-03 20:43:00,63.0,55.3,30.48,WNW,288,3.5,3.5,76,0.00,CLR,,0.00,WeatherDisplay:10.37,2013-06-03 19:43:00,
2013-06-03 20:48:00,63.0,55.3,30.48,WNW,284,4.6,4.6,76,0.00,CLR,,0.00,WeatherDisplay:10.37,2013-06-03 19:48:00,
2013-06-03 20:53:00,62.9,54.9,30.48,WNW,290,5.8,5.8,75,0.00,CLR,,0.00,WeatherDisplay:10.37,2013-06-03 19:53:00,
2013-06-03 20:58:00,62.9,55.2,30.48,West,276,4.6,4.6,76,0.00,CLR,,0.00,WeatherDisplay:10.37,2013-06-03 19:58:00,
2013-06-03 21:03:00,62.5,55.5,30.48,West,274,4.6,4.6,78,0.00,CLR,,0.00,WeatherDisplay:10.37,2013-06-03 20:03:00,
2013-06-03 21:09:00,62.1,55.5,30.48,West,274,3.5,3.5,79,0.00,CLR,,0.00,WeatherDisplay:10.37,2013-06-03 20:09:00,
2013-06-03 21:14:00,62.0,55.4,30.49,West,275,3.5,3.5,79,0.00,CLR,,0.00,WeatherDisplay:10.37,2013-06-03 20:14:00,
2013-06-03 21:19:00,62.0,55.4,30.48,West,275,2.3,2.3,79,0.00,CLR,,0.00,WeatherDisplay:10.37,2013-06-03 20:19:00,
2013-06-03 21:25:00,61.9,55.3,30.48,WNW,288,3.5,3.5,79,0.00,CLR,,0.00,WeatherDisplay:10.37,2013-06-03 20:25:00,
2013-06-03 21:30:00,61.9,55.3,30.48,WNW,296,4.0,4.0,79,0.00,CLR,,0.00,WeatherDisplay:10.37,2013-06-03 20:30:00,
2013-06-03 21:35:00,62.0,55.4,30.48,WNW,302,5.0,5.0,79,0.00,CLR,,0.00,WeatherDisplay:10.37,2013-06-03 20:35:00,
2013-06-03 21:41:00,62.0,55.1,30.49,WNW,293,3.5,3.5,78,0.00,CLR,,0.00,WeatherDisplay:10.37,2013-06-03 20:41:00,
2013-06-03 21:47:00,62.0,55.1,30.49,WNW,293,4.6,4.6,78,0.00,CLR,,0.00,WeatherDisplay:10.37,2013-06-03 20:47:00,
2013-06-03 21:52:00,61.8,55.2,30.49,WNW,300,4.6,4.6,79,0.00,CLR,,0.00,WeatherDisplay:10.37,2013-06-03 20:52:00,
2013-06-03 21:57:00,61.7,55.1,30.49,WNW,295,3.5,3.5,79,0.00,CLR,,0.00,WeatherDisplay:10.37,2013-06-03 20:57:00,
2013-06-03 22:02:00,61.4,55.2,30.49,WNW,284,3.5,3.5,80,0.00,CLR,,0.00,WeatherDisplay:10.37,2013-06-03 21:02:00,
2013-06-03 22:07:00,61.3,55.1,30.49,WNW,287,3.5,3.5,80,0.00,CLR,,0.00,WeatherDisplay:10.37,2013-06-03 21:07:00,
2013-06-03 22:12:00,61.2,55.3,30.49,WNW,287,1.2,1.2,81,0.00,CLR,,0.00,WeatherDisplay:10.37,2013-06-03 21:12:00,
2013-06-03 22:17:00,60.7,54.8,30.49,WSW,242,2.3,2.3,81,0.00,CLR,,0.00,WeatherDisplay:10.37,2013-06-03 21:17:00,
2013-06-03 22:23:00,60.1,54.6,30.49,WSW,240,2.3,2.3,82,0.00,CLR,,0.00,WeatherDisplay:10.37,2013-06-03 21:23:00,
2013-06-03 22:29:00,59.9,54.7,30.49,WSW,240,1.2,1.2,83,0.00,CLR,,0.00,WeatherDisplay:10.37,2013-06-03 21:29:00,
2013-06-03 22:34:00,59.6,54.8,30.49,WSW,245,2.3,2.3,84,0.00,CLR,,0.00,WeatherDisplay:10.37,2013-06-03 21:34:00,
2013-06-03 22:39:00,59.4,54.6,30.49,WSW,245,2.3,2.3,84,0.00,CLR,,0.00,WeatherDisplay:10.37,2013-06-03 21:39:00,
2013-06-03 22:44:00,59.1,54.6,30.49,WSW,254,2.3,2.3,85,0.00,CLR,,0.00,WeatherDisplay:10.37,2013-06-03 21:44:00,
2013-06-03 22:50:00,59.0,54.8,30.49,WSW,254,1.2,1.2,86,0.00,CLR,,0.00,WeatherDisplay:10.37,2013-06-03 21:50:00,
2013-06-03 22:56:00,59.3,54.8,30.49,WNW,290,3.5,3.5,85,0.00,CLR,,0.00,WeatherDisplay:10.37,2013-06-03 21:56:00,
2013-06-03 23:02:00,59.7,54.9,30.49,WNW,288,2.3,2.3,84,0.00,CLR,,0.00,WeatherDisplay:10.37,2013-06-03 22:02:00,
2013-06-03 23:07:00,59.9,55.1,30.49,WNW,286,1.2,1.2,84,0.00,CLR,,0.00,WeatherDisplay:10.37,2013-06-03 22:07:00,
2013-06-03 23:12:00,59.5,54.7,30.49,West,259,2.3,2.3,84,0.00,CLR,,0.00,WeatherDisplay:10.37,2013-06-03 22:12:00,
2013-06-03 23:17:00,58.9,54.4,30.49,West,259,1.2,1.2,85,0.00,CLR,,0.00,WeatherDisplay:10.37,2013-06-03 22:17:00,
2013-06-03 23:23:00,59.0,54.8,30.49,West,279,2.3,2.3,86,0.00,CLR,,0.00,WeatherDisplay:10.37,2013-06-03 22:23:00,
2013-06-03 23:28:00,59.3,54.8,30.49,West,278,1.2,1.2,85,0.00,CLR,,0.00,WeatherDisplay:10.37,2013-06-03 22:28:00,
2013-06-03 23:33:00,59.0,54.8,30.49,West,278,0.0,0.0,86,0.00,CLR,,0.00,WeatherDisplay:10.37,2013-06-03 22:33:00,
2013-06-03 23:38:00,58.7,54.5,30.49,West,278,0.0,0.0,86,0.00,CLR,,0.00,WeatherDisplay:10.37,2013-06-03 22:38:00,
2013-06-03 23:43:00,58.5,54.6,30.49,West,278,1.2,0.0,87,0.00,CLR,,0.00,WeatherDisplay:10.37,2013-06-03 22:43:00,
2013-06-03 23:48:00,58.5,54.6,30.49,West,278,0.0,0.0,87,0.00,CLR,,0.00,WeatherDisplay:10.37,2013-06-03 22:48:00,
2013-06-03 23:53:00,58.2,54.3,30.49,West,276,1.2,1.2,87,0.00,CLR,,0.00,WeatherDisplay:10.37,2013-06-03 22:53:00,
2013-06-03 23:59:00,57.9,54.4,30.49,West,276,1.2,0.0,88,0.00,CLR,,0.00,WeatherDisplay:10.37,2013-06-03 22:59:00,